Time;durP1;ratioP1;P1;durP2;ratioP2;P2;SDS_P1;SDS_P2;PMS_P1;PMS_P2;Temp;Humidity;BMP_temperature;BMP_pressure;BME280_temperature;BME280_humidity;BME280_pressure;Samples;Min_cycle;Max_cycle;Signal;HPM_P1;HPM_P2
2021/12/08 00:01:00;;;;;;;13.13;5.10;;;3.50;99.90;;;;;;5070507;28;20381;-68
2021/12/08 00:03:28;;;;;;;14.45;5.75;;;3.50;99.90;;;;;;5053723;28;20044;-67
2021/12/08 00:05:54;;;;;;;13.57;5.70;;;4.40;99.90;;;;;;5071444;28;20127;-68
2021/12/08 00:08:22;;;;;;;10.57;6.05;;;3.10;99.90;;;;;;5070010;28;20048;-67
2021/12/08 00:13:34;;;;;;;16.92;5.88;;;3.30;99.90;;;;;;5071320;28;20048;-67
2021/12/08 00:16:04;;;;;;;13.68;5.45;;;3.70;99.90;;;;;;5070074;28;20044;-68
2021/12/08 00:18:34;;;;;;;12.38;5.70;;;3.50;99.90;;;;;;5069823;28;20051;-68
2021/12/08 00:21:07;;;;;;;13.77;5.35;;;3.50;99.90;;;;;;5069648;28;20512;-67
2021/12/08 00:23:32;;;;;;;16.25;5.88;;;3.50;99.90;;;;;;5071067;28;20056;-67
2021/12/08 00:26:00;;;;;;;13.32;5.60;;;3.20;99.90;;;;;;5071078;28;20386;-67
2021/12/08 00:28:26;;;;;;;12.55;5.25;;;;;;;;;;5069669;28;20045;-67
2021/12/08 00:30:57;;;;;;;11.35;5.18;;;3.30;99.90;;;;;;5071001;28;20052;-67
2021/12/08 00:33:28;;;;;;;13.30;5.70;;;3.60;99.90;;;;;;5070651;28;20047;-67
2021/12/08 00:35:58;;;;;;;13.95;5.38;;;3.30;99.90;;;;;;5069282;28;20044;-67
2021/12/08 00:38:25;;;;;;;13.75;6.03;;;3.40;99.90;;;;;;5069579;28;20076;-67
2021/12/08 00:40:52;;;;;;;13.95;5.13;;;3.60;99.90;;;;;;5069461;28;20468;-67
2021/12/08 00:43:19;;;;;;;14.95;5.70;;;3.50;99.90;;;;;;5069606;28;20636;-68
2021/12/08 00:45:46;;;;;;;12.15;5.20;;;3.70;99.90;;;;;;5069354;28;20060;-67
2021/12/08 00:48:12;;;;;;;10.55;5.07;;;;;;;;;;5069542;28;20044;-67
2021/12/08 00:50:40;;;;;;;11.35;5.30;;;2.70;99.90;;;;;;5052659;28;20411;-67
2021/12/08 00:53:06;;;;;;;12.05;5.60;;;3.80;99.90;;;;;;5069124;28;20128;-67
2021/12/08 00:55:32;;;;;;;11.20;4.95;;;3.50;99.90;;;;;;5069096;28;20102;-67
2021/12/08 00:57:58;;;;;;;13.27;5.10;;;4.50;99.90;;;;;;5069092;28;20044;-67
2021/12/08 01:00:28;;;;;;;14.05;5.13;;;3.50;99.90;;;;;;5069173;28;20052;-67
2021/12/08 01:02:55;;;;;;;13.43;4.80;;;3.40;99.90;;;;;;5069270;28;20083;-67
2021/12/08 01:05:26;;;;;;;11.18;4.97;;;3.60;99.90;;;;;;5052722;28;20461;-67
2021/12/08 01:07:52;;;;;;;12.57;5.00;;;;;;;;;;5069385;28;20094;-67
2021/12/08 01:10:22;;;;;;;13.45;5.25;;;2.30;99.90;;;;;;5069189;28;20056;-67
2021/12/08 01:12:49;;;;;;;14.65;5.10;;;3.90;99.90;;;;;;5069160;28;20079;-67
2021/12/08 01:15:15;;;;;;;12.10;5.35;;;3.90;99.90;;;;;;5068927;28;20036;-67
2021/12/08 01:17:41;;;;;;;11.25;5.03;;;3.60;99.90;;;;;;5071297;28;20048;-67
2021/12/08 01:20:11;;;;;;;13.82;5.50;;;4.70;99.90;;;;;;5073364;28;20044;-67
2021/12/08 01:22:37;;;;;;;15.65;5.22;;;3.60;99.90;;;;;;5056788;28;20048;-67
2021/12/08 01:25:04;;;;;;;14.75;5.53;;;3.50;99.90;;;;;;5073137;28;20164;-67
2021/12/08 01:27:32;;;;;;;12.32;5.30;;;;;;;;;;5073058;28;20044;-67
2021/12/08 01:29:58;;;;;;;8.68;4.80;;;3.80;99.90;;;;;;5073156;28;20489;-67
2021/12/08 01:32:27;;;;;;;12.40;5.40;;;3.60;99.90;;;;;;5072777;28;20048;-67
2021/12/08 01:34:53;;;;;;;15.15;4.65;;;3.20;99.90;;;;;;5055933;28;20078;-67
2021/12/08 01:37:20;;;;;;;12.25;5.05;;;3.70;99.90;;;;;;5056117;28;20044;-67
2021/12/08 01:39:47;;;;;;;13.02;5.25;;;3.60;99.90;;;;;;5073097;28;20052;-66
2021/12/08 01:42:17;;;;;;;13.70;5.10;;;;;;;;;;5072733;28;20492;-67
2021/12/08 01:47:32;;;;;;;12.18;5.25;;;3.60;99.90;;;;;;5072519;28;20044;-67
2021/12/08 01:49:58;;;;;;;11.73;5.32;;;;;;;;;;5072746;28;20093;-67
2021/12/08 01:52:25;;;;;;;12.98;5.30;;;3.60;99.90;;;;;;5072543;28;20044;-66
2021/12/08 01:54:54;;;;;;;9.73;4.63;;;3.80;99.90;;;;;;5073891;28;20041;-67
2021/12/08 01:57:20;;;;;;;10.52;4.78;;;4.40;99.90;;;;;;5072639;28;20632;-67
2021/12/08 01:59:46;;;;;;;12.32;4.85;;;;;;;;;;5055918;28;20055;-67
2021/12/08 02:02:12;;;;;;;8.65;4.85;;;3.40;99.90;;;;;;5072425;28;20051;-67
2021/12/08 02:04:38;;;;;;;9.95;4.88;;;;;;;;;;5072898;28;20500;-67
2021/12/08 02:07:04;;;;;;;10.85;4.75;;;;;;;;;;5072243;28;20057;-67
2021/12/08 02:09:29;;;;;;;11.30;4.90;;;3.80;99.90;;;;;;5072105;28;20045;-67
2021/12/08 02:11:56;;;;;;;12.13;4.68;;;;;;;;;;5072146;28;20040;-67
2021/12/08 02:14:23;;;;;;;11.20;4.50;;;3.70;99.90;;;;;;5072044;28;20084;-67
2021/12/08 02:16:52;;;;;;;13.60;4.90;;;2.80;99.90;;;;;;5071902;28;20102;-67
2021/12/08 02:19:18;;;;;;;11.05;4.90;;;3.90;99.90;;;;;;5055170;28;20045;-67
2021/12/08 02:21:51;;;;;;;8.65;4.65;;;;;;;;;;5072041;28;20059;-67
2021/12/08 02:24:18;;;;;;;8.85;4.72;;;3.10;99.90;;;;;;5071747;28;20041;-67
2021/12/08 02:26:45;;;;;;;12.98;4.88;;;3.60;99.90;;;;;;5071959;28;20439;-67
2021/12/08 02:29:18;;;;;;;13.40;4.65;;;3.60;99.90;;;;;;5070425;28;20044;-67
2021/12/08 02:32:02;;;;;;;10.18;4.50;;;3.10;99.90;;;;;;5055495;28;20460;-66
2021/12/08 02:48:11;;;;;;;13.07;5.30;;;3.70;99.90;;;;;;5072212;28;20048;-67
2021/12/08 02:50:43;;;;;;;11.02;5.25;;;3.50;99.90;;;;;;5055236;28;20077;-67
2021/12/08 02:53:10;;;;;;;11.63;5.20;;;3.60;99.90;;;;;;5071786;28;20078;-67
2021/12/08 02:55:37;;;;;;;16.27;5.50;;;3.60;99.90;;;;;;5071437;28;20086;-66
2021/12/08 02:58:05;;;;;;;12.45;5.70;;;3.70;99.90;;;;;;5071372;28;20130;-66
2021/12/08 03:00:36;;;;;;;8.43;5.50;;;3.60;99.90;;;;;;5071375;28;20055;-67
2021/12/08 03:03:03;;;;;;;12.18;5.88;;;3.50;99.90;;;;;;5071220;28;20053;-66
2021/12/08 03:05:30;;;;;;;11.27;5.80;;;3.70;99.90;;;;;;5071111;28;20040;-67
2021/12/08 03:07:56;;;;;;;12.65;6.15;;;3.70;99.90;;;;;;5054265;28;20444;-67
2021/12/08 03:10:26;;;;;;;10.10;6.50;;;3.80;99.90;;;;;;5070745;28;20048;-66
2021/12/08 03:12:52;;;;;;;11.25;6.15;;;;;;;;;;5070655;28;20080;-66
2021/12/08 03:15:18;;;;;;;13.65;6.35;;;;;;;;;;5070980;28;20397;-67
2021/12/08 03:17:48;;;;;;;12.90;6.60;;;;;;;;;;5070948;28;20055;-66
2021/12/08 03:20:22;;;;;;;13.60;6.40;;;3.80;99.90;;;;;;5070891;28;20040;-67
2021/12/08 03:22:52;;;;;;;21.85;7.07;;;3.80;99.90;;;;;;5054338;28;20044;-67
2021/12/08 03:25:23;;;;;;;14.35;6.90;;;;;;;;;;5070862;28;20105;-67
2021/12/08 03:28:04;;;;;;;13.43;7.00;;;4.50;99.90;;;;;;5072210;28;20049;-66
2021/12/08 03:30:36;;;;;;;14.13;7.10;;;;;;;;;;5072421;28;20032;-67
2021/12/08 03:33:09;;;;;;;13.13;7.57;;;3.90;99.90;;;;;;5072274;28;20519;-66
2021/12/08 03:35:35;;;;;;;15.75;7.97;;;3.60;99.90;;;;;;5071954;28;20405;-66
2021/12/08 03:38:04;;;;;;;13.98;7.80;;;4.00;99.90;;;;;;5070859;28;20052;-67
2021/12/08 03:40:29;;;;;;;15.63;8.43;;;4.10;99.90;;;;;;5053494;28;20484;-67
2021/12/08 03:42:57;;;;;;;13.52;7.95;;;4.10;99.90;;;;;;5071874;28;20498;-67
2021/12/08 03:45:31;;;;;;;12.82;8.23;;;4.00;99.90;;;;;;5070369;28;20064;-67
2021/12/08 03:48:03;;;;;;;12.70;7.68;;;4.90;99.90;;;;;;5071766;28;20766;-67
2021/12/08 03:50:37;;;;;;;12.85;8.15;;;4.00;99.90;;;;;;5070312;28;20496;-67
2021/12/08 03:53:05;;;;;;;12.48;8.60;;;4.30;99.90;;;;;;5053513;28;20052;-67
2021/12/08 03:55:33;;;;;;;13.40;8.90;;;;;;;;;;5069875;28;20095;-67
2021/12/08 03:57:59;;;;;;;17.55;9.27;;;4.20;99.90;;;;;;5069744;28;20439;-67
2021/12/08 04:00:29;;;;;;;11.55;8.90;;;4.30;99.90;;;;;;5070315;28;20085;-66
2021/12/08 04:02:57;;;;;;;17.63;9.55;;;4.00;99.90;;;;;;5070288;28;20531;-67
2021/12/08 04:05:39;;;;;;;15.80;9.05;;;;;;;;;;5070277;28;20086;-67
2021/12/08 04:08:14;;;;;;;15.00;9.93;;;4.20;99.90;;;;;;5070147;28;20053;-66
2021/12/08 04:10:40;;;;;;;14.25;9.80;;;4.20;99.90;;;;;;5069920;28;20044;-67
2021/12/08 04:13:06;;;;;;;16.38;10.73;;;4.30;99.90;;;;;;5071503;28;20036;-67
2021/12/08 04:15:32;;;;;;;17.02;10.45;;;3.90;99.90;;;;;;5070367;28;20427;-67
2021/12/08 04:17:58;;;;;;;15.88;10.82;;;;;;;;;;5069931;28;20051;-66
2021/12/08 04:20:37;;;;;;;16.45;10.82;;;4.30;99.90;;;;;;5069715;28;20098;-66
2021/12/08 04:23:07;;;;;;;16.65;11.07;;;3.90;99.90;;;;;;5069609;28;20089;-67
2021/12/08 04:25:35;;;;;;;17.80;11.15;;;4.60;99.90;;;;;;5069917;28;20128;-67
2021/12/08 04:28:06;;;;;;;17.60;12.15;;;4.40;99.90;;;;;;5069423;28;20052;-67
2021/12/08 04:30:41;;;;;;;19.85;12.52;;;4.80;99.90;;;;;;5069711;28;20044;-67
2021/12/08 04:33:08;;;;;;;15.55;11.93;;;4.50;99.90;;;;;;5069634;28;20044;-67
2021/12/08 04:35:37;;;;;;;17.60;11.80;;;4.70;99.90;;;;;;5069594;28;20419;-67
2021/12/08 04:38:07;;;;;;;15.68;12.05;;;4.50;99.90;;;;;;5069669;28;20071;-67
2021/12/08 05:07:50;;;;;;;17.10;11.55;;;;;;;;;;5068946;28;20052;-67
2021/12/08 05:10:27;;;;;;;17.98;11.77;;;4.50;99.90;;;;;;5069196;28;20164;-67
2021/12/08 05:12:54;;;;;;;19.52;12.20;;;;;;;;;;5069237;28;20479;-67
2021/12/08 05:15:45;;;;;;;17.27;11.40;;;4.80;99.90;;;;;;5069128;28;20044;-67
2021/12/08 05:18:17;;;;;;;16.20;11.65;;;4.60;99.90;;;;;;5052182;28;20789;-67
2021/12/08 05:20:45;;;;;;;16.08;11.15;;;4.70;99.90;;;;;;5068930;28;20067;-67
2021/12/08 05:23:22;;;;;;;16.88;11.52;;;4.60;99.90;;;;;;5052076;28;20044;-72
2021/12/08 05:25:48;;;;;;;21.35;11.45;;;4.90;99.90;;;;;;5068880;28;20062;-72
2021/12/08 05:28:18;;;;;;;18.30;11.35;;;4.40;99.90;;;;;;5068952;28;20044;-67
2021/12/08 05:30:48;;;;;;;15.48;11.43;;;4.50;99.90;;;;;;5069200;28;20544;-66
2021/12/08 05:33:16;;;;;;;16.42;11.20;;;4.60;99.90;;;;;;5068959;28;20427;-67
2021/12/08 05:35:43;;;;;;;19.08;11.25;;;4.70;99.90;;;;;;5068862;28;20043;-67
2021/12/08 05:38:10;;;;;;;17.85;11.05;;;5.00;99.90;;;;;;5069159;28;20156;-67
2021/12/08 05:40:41;;;;;;;17.13;11.15;;;4.90;99.90;;;;;;5069092;28;20067;-67
2021/12/08 05:43:10;;;;;;;15.63;11.00;;;4.60;99.90;;;;;;5070264;28;20053;-67
2021/12/08 05:45:37;;;;;;;16.73;10.85;;;4.50;99.90;;;;;;5068508;28;20568;-67
2021/12/08 05:48:03;;;;;;;20.85;11.43;;;;;;;;;;5068669;28;20054;-66
2021/12/08 05:50:37;;;;;;;16.02;10.77;;;4.70;99.90;;;;;;5050685;28;20048;-66
2021/12/08 05:53:03;;;;;;;17.38;11.23;;;5.20;99.90;;;;;;5046673;28;20044;-67
2021/12/08 05:55:30;;;;;;;16.83;10.95;;;4.70;99.90;;;;;;5067699;28;20076;-67
2021/12/08 05:58:16;;;;;;;15.88;10.32;;;4.80;99.90;;;;;;5067783;28;20465;-67
2021/12/08 06:00:48;;;;;;;14.23;9.88;;;4.80;99.90;;;;;;5067406;28;20052;-67
2021/12/08 06:03:16;;;;;;;16.92;10.02;;;4.50;99.90;;;;;;5069182;28;20098;-67
2021/12/08 06:05:44;;;;;;;18.52;10.02;;;;;;;;;;5054509;28;20524;-67
2021/12/08 06:08:10;;;;;;;13.35;9.35;;;4.60;99.90;;;;;;5071817;28;20115;-67
2021/12/08 06:10:37;;;;;;;17.13;9.27;;;4.50;99.90;;;;;;5072045;28;20040;-67
2021/12/08 06:13:05;;;;;;;12.65;8.43;;;4.70;99.90;;;;;;5072115;28;20040;-67
2021/12/08 06:15:35;;;;;;;14.95;9.68;;;5.00;99.90;;;;;;5071549;28;20041;-67
2021/12/08 06:18:02;;;;;;;16.08;9.77;;;;;;;;;;5071359;28;20052;-66
2021/12/08 06:20:29;;;;;;;13.18;9.02;;;5.60;99.90;;;;;;5072357;28;20381;-66
2021/12/08 06:22:56;;;;;;;16.00;9.60;;;4.70;99.90;;;;;;5072048;28;20083;-66
2021/12/08 06:25:26;;;;;;;14.93;8.98;;;4.90;99.90;;;;;;5055299;28;20106;-66
2021/12/08 06:27:52;;;;;;;17.33;9.90;;;;;;;;;;5071583;28;20044;-67
2021/12/08 06:30:22;;;;;;;20.27;10.18;;;5.00;99.90;;;;;;5071644;28;20044;-67
2021/12/08 06:32:48;;;;;;;17.67;10.05;;;5.60;99.90;;;;;;5071613;28;20047;-67
2021/12/08 06:35:20;;;;;;;15.63;9.45;;;4.90;99.90;;;;;;5071518;28;20044;-67
2021/12/08 06:37:48;;;;;;;17.13;8.75;;;5.00;99.90;;;;;;5071526;28;20053;-67
2021/12/08 06:40:30;;;;;;;17.05;9.07;;;5.00;99.90;;;;;;5071371;28;20048;-67
2021/12/08 06:43:01;;;;;;;14.82;8.60;;;5.10;99.90;;;;;;5071529;28;20063;-67
2021/12/08 06:45:31;;;;;;;17.13;8.23;;;5.00;99.90;;;;;;5070953;28;20052;-67
2021/12/08 06:48:00;;;;;;;14.68;7.80;;;5.10;99.90;;;;;;5071418;28;20052;-67
2021/12/08 06:50:34;;;;;;;18.90;8.50;;;5.50;99.90;;;;;;5071755;28;20052;-67
2021/12/08 06:53:01;;;;;;;18.70;8.20;;;4.90;99.90;;;;;;5071794;28;20488;-67
2021/12/08 06:55:34;;;;;;;13.63;7.82;;;5.00;99.90;;;;;;5071870;28;20048;-67
2021/12/08 06:58:04;;;;;;;15.23;7.60;;;5.20;99.90;;;;;;5071640;28;20121;-67
2021/12/08 07:03:32;;;;;;;12.13;6.60;;;5.10;99.90;;;;;;5071689;28;20084;-72
2021/12/08 07:06:11;;;;;;;13.02;6.10;;;5.20;99.90;;;;;;5072242;28;20822;-73
2021/12/08 07:08:50;;;;;;;12.73;5.80;;;5.00;99.90;;;;;;5054578;28;20052;-73
2021/12/08 07:11:19;;;;;;;13.73;6.30;;;4.90;99.90;;;;;;5071233;28;20044;-73
2021/12/08 07:13:46;;;;;;;10.88;5.38;;;4.90;99.90;;;;;;5054578;28;20127;-73
2021/12/08 07:16:23;;;;;;;15.45;5.82;;;5.50;99.90;;;;;;5071309;28;20036;-73
2021/12/08 07:19:09;;;;;;;13.23;5.97;;;5.10;99.90;;;;;;5070748;28;20105;-73
2021/12/08 07:21:41;;;;;;;16.05;6.10;;;5.10;99.90;;;;;;5070642;28;20102;-73
2021/12/08 07:24:31;;;;;;;10.13;4.93;;;5.10;99.90;;;;;;5070811;28;20048;-73
2021/12/08 07:27:01;;;;;;;12.65;5.90;;;5.20;99.90;;;;;;5070292;28;20131;-72
2021/12/08 07:29:31;;;;;;;11.40;4.85;;;4.60;99.90;;;;;;5070378;28;20087;-73
2021/12/08 07:32:07;;;;;;;12.93;4.85;;;5.20;99.90;;;;;;5071811;28;20040;-73
2021/12/08 07:34:35;;;;;;;10.95;4.93;;;5.30;99.90;;;;;;5072108;28;20135;-73
2021/12/08 07:37:12;;;;;;;10.20;4.30;;;5.40;99.90;;;;;;5054512;28;20033;-73
2021/12/08 07:39:45;;;;;;;12.07;4.30;;;5.10;99.90;;;;;;5053965;28;20059;-73
2021/12/08 07:42:27;;;;;;;10.32;3.85;;;5.30;99.90;;;;;;5070258;28;20048;-73
2021/12/08 07:44:56;;;;;;;11.68;3.78;;;5.30;99.90;;;;;;5070331;28;20098;-73
2021/12/08 07:47:24;;;;;;;15.18;4.22;;;5.20;99.90;;;;;;5070497;28;20056;-73
2021/12/08 07:49:55;;;;;;;12.77;4.30;;;5.20;99.90;;;;;;5053831;28;20071;-74
2021/12/08 07:52:26;;;;;;;11.05;3.90;;;4.90;99.90;;;;;;5070656;28;20777;-72
2021/12/08 07:54:54;;;;;;;9.32;3.50;;;5.00;99.90;;;;;;5071685;28;20045;-73
2021/12/08 07:57:25;;;;;;;12.30;4.15;;;5.20;99.90;;;;;;5070211;28;20060;-73
2021/12/08 07:59:54;;;;;;;12.55;4.10;;;5.00;99.90;;;;;;5069884;28;20067;-73
2021/12/08 08:02:25;;;;;;;9.77;3.78;;;5.20;99.90;;;;;;5069694;28;20059;-73
2021/12/08 08:04:51;;;;;;;11.30;4.03;;;5.10;99.90;;;;;;5070360;28;20098;-73
2021/12/08 08:07:17;;;;;;;11.48;3.78;;;5.30;99.90;;;;;;5070050;28;20515;-73
2021/12/08 08:09:45;;;;;;;14.77;4.10;;;4.60;99.90;;;;;;5069785;28;20488;-72
2021/12/08 08:12:18;;;;;;;15.23;3.83;;;5.20;99.90;;;;;;5069737;28;20043;-72
2021/12/08 08:14:56;;;;;;;13.13;3.50;;;5.70;99.90;;;;;;5069543;28;20048;-73
2021/12/08 08:17:34;;;;;;;11.32;3.75;;;4.80;99.90;;;;;;5069860;28;20048;-73
2021/12/08 08:20:03;;;;;;;11.05;3.42;;;5.00;99.90;;;;;;5069799;28;20044;-73
2021/12/08 08:22:30;;;;;;;15.40;3.53;;;4.80;99.90;;;;;;5069943;28;20400;-73
2021/12/08 08:24:59;;;;;;;10.70;3.00;;;5.30;99.90;;;;;;5070564;28;20048;-72
2021/12/08 08:27:27;;;;;;;12.45;4.07;;;5.10;99.90;;;;;;5067885;28;20060;-72
2021/12/08 08:29:54;;;;;;;12.02;3.10;;;5.00;99.90;;;;;;5069897;28;20062;-72
2021/12/08 08:32:27;;;;;;;11.38;3.70;;;5.20;99.90;;;;;;5069771;28;20040;-72
2021/12/08 08:35:05;;;;;;;12.48;3.33;;;5.20;99.90;;;;;;5069509;28;20083;-72
2021/12/08 08:37:32;;;;;;;13.05;3.10;;;5.20;99.90;;;;;;5069346;28;20044;-72
2021/12/08 08:40:01;;;;;;;16.33;3.63;;;5.10;99.90;;;;;;5069190;28;20136;-72
2021/12/08 08:42:35;;;;;;;13.18;3.10;;;5.40;99.90;;;;;;5069495;28;20060;-73
2021/12/08 08:45:17;;;;;;;11.80;3.10;;;5.30;99.90;;;;;;5069191;28;20044;-72
2021/12/08 08:47:51;;;;;;;9.07;3.20;;;5.40;99.90;;;;;;5069628;28;20091;-72
2021/12/08 08:50:28;;;;;;;13.57;3.63;;;5.30;99.90;;;;;;5069574;28;20123;-73
2021/12/08 08:52:59;;;;;;;14.23;3.22;;;5.30;99.90;;;;;;5069351;28;20120;-72
2021/12/08 08:55:40;;;;;;;10.95;3.40;;;5.30;99.90;;;;;;5069311;28;20040;-73
2021/12/08 08:58:08;;;;;;;10.93;3.20;;;5.40;99.90;;;;;;5069118;28;20048;-72
2021/12/08 09:00:58;;;;;;;13.93;3.58;;;5.40;99.90;;;;;;5069415;28;20047;-72
2021/12/08 09:03:27;;;;;;;18.55;3.97;;;5.40;99.90;;;;;;5058580;28;20052;-72
2021/12/08 09:06:04;;;;;;;14.70;3.47;;;5.30;99.90;;;;;;5069265;28;20781;-72
2021/12/08 09:08:33;;;;;;;13.57;4.10;;;5.60;99.90;;;;;;5069097;28;20048;-72
2021/12/08 09:11:12;;;;;;;9.95;3.10;;;5.60;99.90;;;;;;5069143;28;20045;-72
2021/12/08 09:14:00;;;;;;;13.68;3.58;;;5.60;99.90;;;;;;5069113;28;20098;-72
2021/12/08 09:16:37;;;;;;;16.23;3.80;;;5.70;99.90;;;;;;5069015;28;20063;-72
2021/12/08 09:19:17;;;;;;;12.95;3.60;;;5.70;99.90;;;;;;5069012;28;20110;-72
2021/12/08 09:21:47;;;;;;;15.10;3.67;;;6.00;99.90;;;;;;5069054;28;20056;-72
2021/12/08 09:24:23;;;;;;;11.07;3.58;;;5.50;99.90;;;;;;5052472;28;20404;-72
2021/12/08 09:26:53;;;;;;;11.00;3.15;;;6.00;99.90;;;;;;5052324;28;20106;-71
2021/12/08 09:29:23;;;;;;;14.82;3.53;;;6.20;99.90;;;;;;5069114;28;20048;-71
2021/12/08 09:32:08;;;;;;;16.70;3.92;;;6.50;99.90;;;;;;5068911;28;20049;-71
2021/12/08 09:34:46;;;;;;;15.27;4.30;;;6.00;99.90;;;;;;5068801;28;20051;-71
2021/12/08 09:37:15;;;;;;;13.82;4.10;;;5.90;99.90;;;;;;5069113;28;20041;-71
2021/12/08 09:39:57;;;;;;;14.57;3.72;;;5.80;99.90;;;;;;5072834;28;20855;-71
2021/12/08 09:42:34;;;;;;;12.40;3.72;;;5.90;99.90;;;;;;5073293;28;20058;-71
2021/12/08 09:45:13;;;;;;;11.35;3.53;;;5.90;99.90;;;;;;5073190;28;20557;-71
2021/12/08 09:47:39;;;;;;;16.05;4.00;;;5.30;99.90;;;;;;5073118;28;20051;-72
2021/12/08 09:50:08;;;;;;;13.23;3.70;;;6.40;99.90;;;;;;5073161;28;20044;-72
2021/12/08 09:52:34;;;;;;;12.88;3.70;;;5.70;99.90;;;;;;5072630;28;20488;-73
2021/12/08 09:55:01;;;;;;;11.68;3.67;;;6.20;99.90;;;;;;5072782;28;20047;-73
2021/12/08 09:57:29;;;;;;;11.05;3.67;;;5.50;99.90;;;;;;5074293;28;20464;-73
2021/12/08 09:59:55;;;;;;;13.10;4.15;;;5.90;99.90;;;;;;5072562;28;20059;-67
2021/12/08 10:02:31;;;;;;;14.98;3.65;;;6.20;99.90;;;;;;5072473;28;20407;-68
2021/12/08 10:04:59;;;;;;;14.40;3.97;;;7.40;99.90;;;;;;5072223;28;20055;-68
2021/12/08 10:07:27;;;;;;;17.23;3.92;;;6.20;99.90;;;;;;5071972;28;20087;-67
2021/12/08 10:09:53;;;;;;;13.20;3.75;;;5.90;99.90;;;;;;5072294;28;20082;-67
2021/12/08 10:12:19;;;;;;;10.57;3.58;;;6.40;99.90;;;;;;5072171;28;20127;-68
2021/12/08 10:14:46;;;;;;;15.88;3.80;;;6.40;99.90;;;;;;5072509;28;20151;-68
2021/12/08 10:17:13;;;;;;;15.25;3.63;;;6.20;99.90;;;;;;5072057;28;20076;-68
2021/12/08 10:19:40;;;;;;;13.30;4.07;;;6.40;99.90;;;;;;5071910;28;20123;-68
2021/12/08 10:22:21;;;;;;;14.68;3.45;;;6.20;99.90;;;;;;5071756;28;20041;-67
2021/12/08 10:25:10;;;;;;;19.65;3.88;;;6.50;99.90;;;;;;5072140;28;20040;-68
2021/12/08 10:28:10;;;;;;;13.70;3.80;;;6.30;99.90;;;;;;5073518;28;20176;-68
2021/12/08 10:31:06;;;;;;;12.88;4.05;;;6.60;99.90;;;;;;5071942;28;20426;-68
2021/12/08 10:36:45;;;;;;;11.82;3.80;;;6.60;99.90;;;;;;5071693;28;20082;-68
2021/12/08 10:39:22;;;;;;;12.25;3.88;;;6.50;99.90;;;;;;5055318;28;20045;-68
2021/12/08 10:42:13;;;;;;;14.02;3.90;;;6.40;99.90;;;;;;5072188;28;20101;-68
2021/12/08 10:47:32;;;;;;;13.10;3.65;;;6.40;99.90;;;;;;5071853;28;20063;-72
2021/12/08 10:55:20;;;;;;;10.85;3.45;;;6.90;99.90;;;;;;5071965;28;20075;-73
2021/12/08 10:57:50;;;;;;;13.13;3.80;;;6.40;99.90;;;;;;5071751;28;20452;-72
2021/12/08 11:00:25;;;;;;;12.95;3.50;;;6.40;99.90;;;;;;5071229;28;20110;-72
2021/12/08 11:02:58;;;;;;;17.05;3.67;;;5.90;99.90;;;;;;5071277;28;20036;-73
2021/12/08 11:05:24;;;;;;;13.13;3.67;;;6.30;99.90;;;;;;5071208;28;20045;-68
2021/12/08 11:08:27;;;;;;;10.38;3.50;;;6.60;99.90;;;;;;5071178;28;20447;-68
2021/12/08 11:11:04;;;;;;;10.57;3.78;;;6.60;99.90;;;;;;5062253;28;20056;-68
2021/12/08 11:13:34;;;;;;;13.23;3.70;;;6.40;99.90;;;;;;5071214;28;20040;-68
2021/12/08 11:16:04;;;;;;;11.95;3.83;;;6.60;99.90;;;;;;5071183;28;20052;-68
2021/12/08 11:18:31;;;;;;;10.73;3.10;;;6.80;99.90;;;;;;5071143;28;20080;-68
2021/12/08 11:21:01;;;;;;;8.98;3.38;;;6.80;99.90;;;;;;5071138;28;20045;-68
2021/12/08 11:23:47;;;;;;;11.32;3.55;;;7.10;99.90;;;;;;5071685;28;20048;-68
2021/12/08 11:26:16;;;;;;;;;;;6.70;99.90;;;;;;5071326;28;20041;-68
2021/12/08 11:28:43;;;;;;;12.50;3.50;;;6.50;99.90;;;;;;5054017;28;19974;-68
2021/12/08 11:31:15;;;;;;;11.68;3.78;;;6.10;99.90;;;;;;5054353;28;20131;-68
2021/12/08 11:33:48;;;;;;;11.65;3.80;;;6.70;99.90;;;;;;5070630;28;20032;-68
2021/12/08 11:36:20;;;;;;;8.43;3.20;;;6.50;99.90;;;;;;5054037;28;20037;-68
2021/12/08 11:38:49;;;;;;;11.50;3.53;;;6.40;99.90;;;;;;5070640;28;20542;-68
2021/12/08 11:41:35;;;;;;;14.88;3.38;;;6.50;99.90;;;;;;5070469;28;20040;-68
2021/12/08 11:44:09;;;;;;;13.98;3.90;;;6.30;99.90;;;;;;5070847;28;20070;-68
2021/12/08 11:47:00;;;;;;;13.73;3.45;;;6.30;99.90;;;;;;5070354;28;20503;-68
2021/12/08 11:49:26;;;;;;;14.25;3.78;;;6.40;99.90;;;;;;5063519;28;20497;-68
2021/12/08 11:51:59;;;;;;;14.43;3.78;;;6.60;99.90;;;;;;5070790;28;20045;-68
2021/12/08 11:54:25;;;;;;;10.68;3.30;;;;;;;;;;5070574;28;20048;-68
2021/12/08 11:56:52;;;;;;;9.50;3.33;;;6.40;99.90;;;;;;5070088;28;20076;-68
2021/12/08 11:59:18;;;;;;;12.80;3.53;;;6.50;99.90;;;;;;5069970;28;20048;-68
2021/12/08 12:01:46;;;;;;;7.63;3.10;;;6.40;99.90;;;;;;5069711;28;20094;-68
2021/12/08 12:04:15;;;;;;;12.95;3.67;;;6.50;99.90;;;;;;5069993;28;20132;-68
2021/12/08 12:06:41;;;;;;;13.57;3.97;;;6.40;99.90;;;;;;5070322;28;20139;-68
2021/12/08 12:09:08;;;;;;;10.52;3.30;;;6.20;99.90;;;;;;5069800;28;20484;-68
2021/12/08 12:11:34;;;;;;;14.77;3.58;;;6.40;99.90;;;;;;5070044;28;20044;-68
2021/12/08 12:14:00;;;;;;;13.13;3.63;;;6.30;99.90;;;;;;5070029;28;20118;-68
2021/12/08 12:16:27;;;;;;;12.63;3.30;;;6.30;99.90;;;;;;5070027;28;20131;-68
2021/12/08 12:19:02;;;;;;;12.25;3.53;;;6.60;99.90;;;;;;5069785;28;20074;-68
2021/12/08 12:21:41;;;;;;;11.88;3.33;;;6.60;99.90;;;;;;5069896;28;20044;-68
2021/12/08 12:24:37;;;;;;;12.77;3.25;;;6.70;99.90;;;;;;5070084;28;20126;-68
2021/12/08 12:27:31;;;;;;;8.25;3.03;;;6.40;99.90;;;;;;5069408;28;20063;-68
2021/12/08 12:30:06;;;;;;;7.88;3.00;;;6.30;99.90;;;;;;5069521;28;20053;-68
2021/12/08 12:32:44;;;;;;;13.73;3.33;;;6.50;99.90;;;;;;5069867;28;20395;-68
2021/12/08 12:35:20;;;;;;;7.80;2.95;;;6.50;99.90;;;;;;5069897;28;20514;-69
2021/12/08 12:37:50;;;;;;;11.05;3.50;;;6.70;99.90;;;;;;5053018;28;20059;-68
2021/12/08 12:40:19;;;;;;;13.27;3.20;;;6.50;99.90;;;;;;5070935;28;20050;-68
2021/12/08 12:42:51;;;;;;;13.60;3.35;;;6.80;99.90;;;;;;5070929;28;20407;-69
2021/12/08 12:45:18;;;;;;;15.43;3.60;;;7.00;99.90;;;;;;5069349;28;20060;-69
2021/12/08 12:48:24;;;;;;;11.07;3.40;;;7.00;99.90;;;;;;5069966;28;20182;-68
2021/12/08 12:51:02;;;;;;;13.50;3.20;;;6.50;99.90;;;;;;5071212;28;20389;-68
2021/12/08 12:53:51;;;;;;;11.73;3.60;;;7.00;99.90;;;;;;5070873;28;20066;-69
2021/12/08 12:56:37;;;;;;;12.50;3.15;;;6.40;99.90;;;;;;5070624;28;20040;-69
2021/12/08 12:59:11;;;;;;;13.00;3.00;;;6.50;99.90;;;;;;5070358;28;20512;-68
2021/12/08 13:01:44;;;;;;;10.57;3.38;;;6.30;99.90;;;;;;5070654;28;20047;-68
2021/12/08 13:04:21;;;;;;;11.68;3.50;;;6.30;99.90;;;;;;5070409;28;20049;-69
2021/12/08 13:06:52;;;;;;;13.18;3.67;;;6.40;99.90;;;;;;5069371;28;20758;-69
2021/12/08 13:09:41;;;;;;;13.27;3.17;;;6.30;99.90;;;;;;5069558;28;20080;-69
2021/12/08 13:12:18;;;;;;;16.75;3.35;;;6.40;99.90;;;;;;5070612;28;20098;-68
2021/12/08 13:14:46;;;;;;;14.20;3.55;;;6.50;99.90;;;;;;5069946;28;20055;-69
2021/12/08 13:17:24;;;;;;;13.85;3.30;;;6.50;99.90;;;;;;5070976;28;20052;-69
2021/12/08 13:19:56;;;;;;;11.05;3.00;;;6.80;99.90;;;;;;5070643;28;20039;-69
2021/12/08 13:22:54;;;;;;;11.98;3.15;;;6.40;99.90;;;;;;5070600;28;20149;-69
2021/12/08 13:25:57;;;;;;;10.25;3.40;;;6.30;99.90;;;;;;5070412;28;20097;-69
2021/12/08 13:28:25;;;;;;;14.27;3.38;;;;;;;;;;5070492;28;20147;-69
2021/12/08 13:31:10;;;;;;;13.88;3.05;;;6.40;99.90;;;;;;5070408;28;20037;-69
2021/12/08 13:33:58;;;;;;;12.15;3.08;;;6.50;99.90;;;;;;5070185;28;20068;-69
2021/12/08 13:36:28;;;;;;;13.50;2.97;;;6.50;99.90;;;;;;5068955;28;20049;-69
2021/12/08 13:38:57;;;;;;;10.48;3.10;;;6.70;99.90;;;;;;5070114;28;20062;-69
2021/12/08 13:41:27;;;;;;;16.45;3.20;;;6.40;99.90;;;;;;5068638;28;20075;-68
2021/12/08 13:43:56;;;;;;;12.88;3.03;;;6.50;99.90;;;;;;5070054;28;20123;-68
2021/12/08 13:46:36;;;;;;;13.32;3.22;;;6.50;99.90;;;;;;5068477;28;20060;-68
2021/12/08 13:49:19;;;;;;;10.93;2.90;;;6.40;99.90;;;;;;5068761;28;20084;-68
2021/12/08 13:52:06;;;;;;;12.05;3.00;;;6.40;99.90;;;;;;5069110;28;20158;-68
2021/12/08 13:54:37;;;;;;;11.00;3.05;;;6.80;99.90;;;;;;5068695;28;20040;-68
2021/12/08 13:57:25;;;;;;;11.35;3.10;;;6.50;99.90;;;;;;5070207;28;20389;-69
2021/12/08 13:59:55;;;;;;;12.45;2.97;;;6.40;99.90;;;;;;5069091;28;20047;-68
2021/12/08 14:02:36;;;;;;;9.73;2.75;;;6.50;99.90;;;;;;5069003;28;20033;-68
2021/12/08 14:05:09;;;;;;;10.98;3.30;;;6.50;99.90;;;;;;5068796;28;20051;-68
2021/12/08 14:07:38;;;;;;;10.60;2.95;;;6.20;99.90;;;;;;5068735;28;20044;-68
2021/12/08 14:10:16;;;;;;;10.85;2.85;;;6.50;99.90;;;;;;5069165;28;20055;-68
2021/12/08 14:12:49;;;;;;;11.00;3.03;;;6.60;99.90;;;;;;5068982;28;20106;-73
2021/12/08 14:15:17;;;;;;;16.67;3.50;;;6.70;99.90;;;;;;5068810;28;20041;-73
2021/12/08 14:17:43;;;;;;;8.85;2.95;;;6.60;99.90;;;;;;5070486;28;20419;-73
2021/12/08 14:20:28;;;;;;;12.52;2.90;;;7.00;99.90;;;;;;5069966;28;20124;-72